sensor_id;sensor_type;location;lat;lon;timestamp;temperature;humidity
69776;DHT22;57049;51.450;-2.516;2022-11-13T00:00:34;12.31;99.99
69776;DHT22;57049;51.450;-2.516;2022-11-13T00:03:02;12.29;99.99
69776;DHT22;57049;51.450;-2.516;2022-11-13T00:05:28;12.37;99.99
69776;DHT22;57049;51.450;-2.516;2022-11-13T00:07:54;12.31;99.99
69776;DHT22;57049;51.450;-2.516;2022-11-13T00:10:19;12.39;99.99
69776;DHT22;57049;51.450;-2.516;2022-11-13T00:12:45;12.27;99.99
69776;DHT22;57049;51.450;-2.516;2022-11-13T00:15:10;12.27;99.99
69776;DHT22;57049;51.450;-2.516;2022-11-13T00:17:36;12.21;99.99
69776;DHT22;57049;51.450;-2.516;2022-11-13T00:20:02;12.20;99.99
69776;DHT22;57049;51.450;-2.516;2022-11-13T00:22:28;12.17;99.99
69776;DHT22;57049;51.450;-2.516;2022-11-13T00:24:53;12.11;99.99
69776;DHT22;57049;51.450;-2.516;2022-11-13T00:27:19;12.20;99.99
69776;DHT22;57049;51.450;-2.516;2022-11-13T00:29:44;12.14;99.99
69776;DHT22;57049;51.450;-2.516;2022-11-13T00:32:10;12.15;99.99
69776;DHT22;57049;51.450;-2.516;2022-11-13T00:34:35;12.04;99.99
69776;DHT22;57049;51.450;-2.516;2022-11-13T00:37:01;12.10;99.99
69776;DHT22;57049;51.450;-2.516;2022-11-13T00:39:27;11.99;99.99
69776;DHT22;57049;51.450;-2.516;2022-11-13T00:41:52;12.05;99.99
69776;DHT22;57049;51.450;-2.516;2022-11-13T00:44:18;12.07;99.99
69776;DHT22;57049;51.450;-2.516;2022-11-13T00:46:44;12.11;99.99
69776;DHT22;57049;51.450;-2.516;2022-11-13T00:49:09;11.97;99.99
69776;DHT22;57049;51.450;-2.516;2022-11-13T00:51:35;11.97;99.99
69776;DHT22;57049;51.450;-2.516;2022-11-13T00:54:01;12.01;99.99
69776;DHT22;57049;51.450;-2.516;2022-11-13T00:56:27;12.01;99.99
69776;DHT22;57049;51.450;-2.516;2022-11-13T00:58:52;12.14;99.99
69776;DHT22;57049;51.450;-2.516;2022-11-13T01:01:21;12.11;99.99
69776;DHT22;57049;51.450;-2.516;2022-11-13T01:03:46;12.25;99.99
69776;DHT22;57049;51.450;-2.516;2022-11-13T01:06:19;12.21;99.99
69776;DHT22;57049;51.450;-2.516;2022-11-13T01:08:46;12.07;99.99
69776;DHT22;57049;51.450;-2.516;2022-11-13T01:11:14;12.15;99.99
69776;DHT22;57049;51.450;-2.516;2022-11-13T01:13:42;12.11;99.99
69776;DHT22;57049;51.450;-2.516;2022-11-13T01:16:09;12.04;99.99
69776;DHT22;57049;51.450;-2.516;2022-11-13T01:18:35;12.17;99.99
69776;DHT22;57049;51.450;-2.516;2022-11-13T01:21:07;12.14;99.99
69776;DHT22;57049;51.450;-2.516;2022-11-13T01:23:33;12.24;99.99
69776;DHT22;57049;51.450;-2.516;2022-11-13T01:26:14;12.25;99.99
69776;DHT22;57049;51.450;-2.516;2022-11-13T01:28:41;12.20;99.99
69776;DHT22;57049;51.450;-2.516;2022-11-13T01:31:09;12.13;99.99
69776;DHT22;57049;51.450;-2.516;2022-11-13T01:33:35;12.20;99.99
69776;DHT22;57049;51.450;-2.516;2022-11-13T01:36:10;12.15;99.99
69776;DHT22;57049;51.450;-2.516;2022-11-13T01:38:36;12.21;99.99
69776;DHT22;57049;51.450;-2.516;2022-11-13T01:41:03;12.21;99.99
69776;DHT22;57049;51.450;-2.516;2022-11-13T01:43:31;12.34;99.99
69776;DHT22;57049;51.450;-2.516;2022-11-13T01:48:25;12.45;99.99
69776;DHT22;57049;51.450;-2.516;2022-11-13T01:50:53;12.41;99.99
69776;DHT22;57049;51.450;-2.516;2022-11-13T01:53:19;12.49;99.99
69776;DHT22;57049;51.450;-2.516;2022-11-13T01:55:45;12.39;99.99
69776;DHT22;57049;51.450;-2.516;2022-11-13T01:58:12;12.46;99.99
69776;DHT22;57049;51.450;-2.516;2022-11-13T02:00:37;12.44;99.99
69776;DHT22;57049;51.450;-2.516;2022-11-13T02:03:03;12.38;99.99
69776;DHT22;57049;51.450;-2.516;2022-11-13T02:05:29;12.39;99.99
69776;DHT22;57049;51.450;-2.516;2022-11-13T02:07:54;12.45;99.99
69776;DHT22;57049;51.450;-2.516;2022-11-13T02:10:20;12.38;99.99
69776;DHT22;57049;51.450;-2.516;2022-11-13T02:12:48;12.49;99.99
69776;DHT22;57049;51.450;-2.516;2022-11-13T02:15:14;12.48;99.99
69776;DHT22;57049;51.450;-2.516;2022-11-13T02:17:45;12.44;99.99
69776;DHT22;57049;51.450;-2.516;2022-11-13T02:20:12;12.48;99.99
69776;DHT22;57049;51.450;-2.516;2022-11-13T02:22:59;12.48;99.99
69776;DHT22;57049;51.450;-2.516;2022-11-13T02:25:27;12.50;99.99
69776;DHT22;57049;51.450;-2.516;2022-11-13T02:27:54;12.53;99.99
69776;DHT22;57049;51.450;-2.516;2022-11-13T02:30:23;12.56;99.99
69776;DHT22;57049;51.450;-2.516;2022-11-13T02:32:51;12.63;99.99
69776;DHT22;57049;51.450;-2.516;2022-11-13T02:35:21;12.62;99.99
69776;DHT22;57049;51.450;-2.516;2022-11-13T02:37:48;12.62;99.99
69776;DHT22;57049;51.450;-2.516;2022-11-13T02:40:14;12.70;99.99
69776;DHT22;57049;51.450;-2.516;2022-11-13T02:42:42;12.72;99.99
69776;DHT22;57049;51.450;-2.516;2022-11-13T02:45:08;12.62;99.99
69776;DHT22;57049;51.450;-2.516;2022-11-13T02:47:33;12.66;99.99
69776;DHT22;57049;51.450;-2.516;2022-11-13T02:49:59;12.62;99.99
69776;DHT22;57049;51.450;-2.516;2022-11-13T02:52:25;12.59;99.99
69776;DHT22;57049;51.450;-2.516;2022-11-13T02:54:51;12.59;99.99
69776;DHT22;57049;51.450;-2.516;2022-11-13T02:57:16;12.56;99.99
69776;DHT22;57049;51.450;-2.516;2022-11-13T02:59:42;12.53;99.99
69776;DHT22;57049;51.450;-2.516;2022-11-13T03:02:08;12.55;99.99
69776;DHT22;57049;51.450;-2.516;2022-11-13T03:04:33;12.49;99.99
69776;DHT22;57049;51.450;-2.516;2022-11-13T03:06:59;12.58;99.99
69776;DHT22;57049;51.450;-2.516;2022-11-13T03:09:25;12.50;99.99
69776;DHT22;57049;51.450;-2.516;2022-11-13T03:11:50;12.50;99.99
69776;DHT22;57049;51.450;-2.516;2022-11-13T03:14:16;12.42;99.99
69776;DHT22;57049;51.450;-2.516;2022-11-13T03:16:41;12.41;99.99
69776;DHT22;57049;51.450;-2.516;2022-11-13T03:19:07;12.50;99.99
69776;DHT22;57049;51.450;-2.516;2022-11-13T03:21:32;12.49;99.99
69776;DHT22;57049;51.450;-2.516;2022-11-13T03:23:58;12.52;99.99
69776;DHT22;57049;51.450;-2.516;2022-11-13T03:26:24;12.53;99.99
69776;DHT22;57049;51.450;-2.516;2022-11-13T03:28:52;12.58;99.99
69776;DHT22;57049;51.450;-2.516;2022-11-13T03:31:18;12.53;99.99
69776;DHT22;57049;51.450;-2.516;2022-11-13T03:33:43;12.59;99.99
69776;DHT22;57049;51.450;-2.516;2022-11-13T03:36:09;12.53;99.99
69776;DHT22;57049;51.450;-2.516;2022-11-13T03:38:34;12.53;99.99
69776;DHT22;57049;51.450;-2.516;2022-11-13T03:41:00;12.50;99.99
69776;DHT22;57049;51.450;-2.516;2022-11-13T03:43:26;12.50;99.99
69776;DHT22;57049;51.450;-2.516;2022-11-13T03:45:51;12.50;99.99
69776;DHT22;57049;51.450;-2.516;2022-11-13T03:48:17;12.55;99.99
69776;DHT22;57049;51.450;-2.516;2022-11-13T03:50:45;12.56;99.99
69776;DHT22;57049;51.450;-2.516;2022-11-13T03:53:11;12.49;99.99
69776;DHT22;57049;51.450;-2.516;2022-11-13T03:55:37;12.49;99.99
69776;DHT22;57049;51.450;-2.516;2022-11-13T03:58:03;12.37;99.99
69776;DHT22;57049;51.450;-2.516;2022-11-13T04:00:29;12.37;99.99
69776;DHT22;57049;51.450;-2.516;2022-11-13T04:02:55;12.34;99.99
69776;DHT22;57049;51.450;-2.516;2022-11-13T04:05:20;12.39;99.99
69776;DHT22;57049;51.450;-2.516;2022-11-13T04:07:46;12.41;99.99
69776;DHT22;57049;51.450;-2.516;2022-11-13T04:10:12;12.46;99.99
69776;DHT22;57049;51.450;-2.516;2022-11-13T04:12:38;12.41;99.99
69776;DHT22;57049;51.450;-2.516;2022-11-13T04:15:04;12.41;99.99
69776;DHT22;57049;51.450;-2.516;2022-11-13T04:17:29;12.44;99.99
69776;DHT22;57049;51.450;-2.516;2022-11-13T04:19:55;12.35;99.99
69776;DHT22;57049;51.450;-2.516;2022-11-13T04:22:20;12.37;99.99
69776;DHT22;57049;51.450;-2.516;2022-11-13T04:24:46;12.35;99.99
69776;DHT22;57049;51.450;-2.516;2022-11-13T04:27:11;12.32;99.99
69776;DHT22;57049;51.450;-2.516;2022-11-13T04:29:37;12.31;99.99
69776;DHT22;57049;51.450;-2.516;2022-11-13T04:32:02;12.34;99.99
69776;DHT22;57049;51.450;-2.516;2022-11-13T04:34:28;12.31;99.99
69776;DHT22;57049;51.450;-2.516;2022-11-13T04:36:53;12.29;99.99
69776;DHT22;57049;51.450;-2.516;2022-11-13T04:39:19;12.34;99.99
69776;DHT22;57049;51.450;-2.516;2022-11-13T04:41:44;12.25;99.99
69776;DHT22;57049;51.450;-2.516;2022-11-13T04:44:28;12.29;99.99
69776;DHT22;57049;51.450;-2.516;2022-11-13T04:46:53;12.35;99.99
69776;DHT22;57049;51.450;-2.516;2022-11-13T04:49:19;12.29;99.99
69776;DHT22;57049;51.450;-2.516;2022-11-13T04:51:44;12.27;99.99
69776;DHT22;57049;51.450;-2.516;2022-11-13T04:54:10;12.25;99.99
69776;DHT22;57049;51.450;-2.516;2022-11-13T04:56:35;12.25;99.99
69776;DHT22;57049;51.450;-2.516;2022-11-13T04:59:01;12.27;99.99
69776;DHT22;57049;51.450;-2.516;2022-11-13T05:01:26;12.18;99.99
69776;DHT22;57049;51.450;-2.516;2022-11-13T05:03:52;12.13;99.99
69776;DHT22;57049;51.450;-2.516;2022-11-13T05:06:17;12.13;99.99
69776;DHT22;57049;51.450;-2.516;2022-11-13T05:08:43;12.13;99.99
69776;DHT22;57049;51.450;-2.516;2022-11-13T05:11:08;11.98;99.99
69776;DHT22;57049;51.450;-2.516;2022-11-13T05:13:35;12.01;99.99
69776;DHT22;57049;51.450;-2.516;2022-11-13T05:16:01;12.04;99.99
69776;DHT22;57049;51.450;-2.516;2022-11-13T05:18:27;12.04;99.99
69776;DHT22;57049;51.450;-2.516;2022-11-13T05:20:53;12.02;99.99
69776;DHT22;57049;51.450;-2.516;2022-11-13T05:23:18;11.99;99.99
69776;DHT22;57049;51.450;-2.516;2022-11-13T05:25:44;11.97;99.99
69776;DHT22;57049;51.450;-2.516;2022-11-13T05:28:09;11.91;99.99
69776;DHT22;57049;51.450;-2.516;2022-11-13T05:30:35;11.87;99.99
69776;DHT22;57049;51.450;-2.516;2022-11-13T05:33:00;11.73;99.99
69776;DHT22;57049;51.450;-2.516;2022-11-13T05:35:26;11.66;99.99
69776;DHT22;57049;51.450;-2.516;2022-11-13T05:37:51;11.67;99.99
69776;DHT22;57049;51.450;-2.516;2022-11-13T05:40:17;11.57;99.99
69776;DHT22;57049;51.450;-2.516;2022-11-13T05:42:42;11.54;99.99
69776;DHT22;57049;51.450;-2.516;2022-11-13T05:45:08;11.52;99.99
69776;DHT22;57049;51.450;-2.516;2022-11-13T05:47:34;11.42;99.99
69776;DHT22;57049;51.450;-2.516;2022-11-13T05:49:59;11.26;99.99
69776;DHT22;57049;51.450;-2.516;2022-11-13T05:52:25;11.19;99.99
69776;DHT22;57049;51.450;-2.516;2022-11-13T05:54:50;11.05;99.99
69776;DHT22;57049;51.450;-2.516;2022-11-13T05:57:15;10.96;99.99
69776;DHT22;57049;51.450;-2.516;2022-11-13T05:59:41;10.94;99.99
69776;DHT22;57049;51.450;-2.516;2022-11-13T06:02:06;11.02;99.99
69776;DHT22;57049;51.450;-2.516;2022-11-13T06:04:32;11.08;99.99
69776;DHT22;57049;51.450;-2.516;2022-11-13T06:06:57;10.96;99.99
69776;DHT22;57049;51.450;-2.516;2022-11-13T06:09:23;10.95;99.99
69776;DHT22;57049;51.450;-2.516;2022-11-13T06:11:48;10.99;99.99
69776;DHT22;57049;51.450;-2.516;2022-11-13T06:14:14;10.96;99.99
69776;DHT22;57049;51.450;-2.516;2022-11-13T06:16:39;10.99;99.99
69776;DHT22;57049;51.450;-2.516;2022-11-13T06:19:07;11.13;99.99
69776;DHT22;57049;51.450;-2.516;2022-11-13T06:21:36;11.18;99.99
69776;DHT22;57049;51.450;-2.516;2022-11-13T06:24:03;11.30;99.99
69776;DHT22;57049;51.450;-2.516;2022-11-13T06:26:31;11.47;99.99
69776;DHT22;57049;51.450;-2.516;2022-11-13T06:28:59;11.52;99.99
69776;DHT22;57049;51.450;-2.516;2022-11-13T06:31:27;11.54;99.99
69776;DHT22;57049;51.450;-2.516;2022-11-13T06:33:53;11.53;99.99
69776;DHT22;57049;51.450;-2.516;2022-11-13T06:36:24;11.47;99.99
69776;DHT22;57049;51.450;-2.516;2022-11-13T06:38:49;11.47;99.99
69776;DHT22;57049;51.450;-2.516;2022-11-13T06:41:18;11.47;99.99
69776;DHT22;57049;51.450;-2.516;2022-11-13T06:43:44;11.47;99.99
69776;DHT22;57049;51.450;-2.516;2022-11-13T06:46:14;11.53;99.99
69776;DHT22;57049;51.450;-2.516;2022-11-13T06:48:40;11.57;99.99
69776;DHT22;57049;51.450;-2.516;2022-11-13T06:51:08;11.53;99.99
69776;DHT22;57049;51.450;-2.516;2022-11-13T06:53:34;11.62;99.99
69776;DHT22;57049;51.450;-2.516;2022-11-13T06:56:00;11.63;99.99
69776;DHT22;57049;51.450;-2.516;2022-11-13T06:58:25;11.60;99.99
69776;DHT22;57049;51.450;-2.516;2022-11-13T07:00:51;11.60;99.99
69776;DHT22;57049;51.450;-2.516;2022-11-13T07:03:19;11.62;99.99
69776;DHT22;57049;51.450;-2.516;2022-11-13T07:05:45;11.66;99.99
69776;DHT22;57049;51.450;-2.516;2022-11-13T07:08:11;11.74;99.99
69776;DHT22;57049;51.450;-2.516;2022-11-13T07:10:37;11.78;99.99
69776;DHT22;57049;51.450;-2.516;2022-11-13T07:13:03;11.71;99.99
69776;DHT22;57049;51.450;-2.516;2022-11-13T07:15:28;11.77;99.99
69776;DHT22;57049;51.450;-2.516;2022-11-13T07:17:54;11.80;99.99
69776;DHT22;57049;51.450;-2.516;2022-11-13T07:20:19;11.83;99.99
69776;DHT22;57049;51.450;-2.516;2022-11-13T07:22:45;11.78;99.99
69776;DHT22;57049;51.450;-2.516;2022-11-13T07:25:10;11.86;99.99
69776;DHT22;57049;51.450;-2.516;2022-11-13T07:27:36;11.84;99.99
69776;DHT22;57049;51.450;-2.516;2022-11-13T07:30:02;11.88;99.99
69776;DHT22;57049;51.450;-2.516;2022-11-13T07:32:27;11.86;99.99
69776;DHT22;57049;51.450;-2.516;2022-11-13T07:34:52;11.90;99.99
69776;DHT22;57049;51.450;-2.516;2022-11-13T07:37:18;11.88;99.99
69776;DHT22;57049;51.450;-2.516;2022-11-13T07:39:43;11.88;99.99
69776;DHT22;57049;51.450;-2.516;2022-11-13T07:42:09;11.90;99.99
69776;DHT22;57049;51.450;-2.516;2022-11-13T07:44:34;11.94;99.99
69776;DHT22;57049;51.450;-2.516;2022-11-13T07:47:00;11.94;99.99
69776;DHT22;57049;51.450;-2.516;2022-11-13T07:49:25;12.01;99.87
69776;DHT22;57049;51.450;-2.516;2022-11-13T07:51:51;12.07;99.76
69776;DHT22;57049;51.450;-2.516;2022-11-13T07:54:16;12.05;99.80
69776;DHT22;57049;51.450;-2.516;2022-11-13T07:56:43;12.02;99.75
69776;DHT22;57049;51.450;-2.516;2022-11-13T07:59:09;12.07;99.82
69776;DHT22;57049;51.450;-2.516;2022-11-13T08:01:35;12.11;99.61
69776;DHT22;57049;51.450;-2.516;2022-11-13T08:04:00;12.13;99.50
69776;DHT22;57049;51.450;-2.516;2022-11-13T08:06:26;12.15;99.26
69776;DHT22;57049;51.450;-2.516;2022-11-13T08:08:52;12.18;99.37
69776;DHT22;57049;51.450;-2.516;2022-11-13T08:11:17;12.20;99.37
69776;DHT22;57049;51.450;-2.516;2022-11-13T08:13:43;12.20;99.31
69776;DHT22;57049;51.450;-2.516;2022-11-13T08:16:08;12.22;99.36
69776;DHT22;57049;51.450;-2.516;2022-11-13T08:18:34;12.25;99.22
69776;DHT22;57049;51.450;-2.516;2022-11-13T08:21:01;12.24;99.24
69776;DHT22;57049;51.450;-2.516;2022-11-13T08:23:27;12.27;99.09
69776;DHT22;57049;51.450;-2.516;2022-11-13T08:25:52;12.29;99.11
69776;DHT22;57049;51.450;-2.516;2022-11-13T08:28:18;12.34;99.12
69776;DHT22;57049;51.450;-2.516;2022-11-13T08:30:44;12.34;99.03
69776;DHT22;57049;51.450;-2.516;2022-11-13T08:33:09;12.39;98.91
69776;DHT22;57049;51.450;-2.516;2022-11-13T08:35:35;12.41;98.76
69776;DHT22;57049;51.450;-2.516;2022-11-13T08:38:05;12.44;98.88
69776;DHT22;57049;51.450;-2.516;2022-11-13T08:40:31;12.39;98.70
69776;DHT22;57049;51.450;-2.516;2022-11-13T08:43:01;12.38;98.91
69776;DHT22;57049;51.450;-2.516;2022-11-13T08:45:28;12.42;99.05
69776;DHT22;57049;51.450;-2.516;2022-11-13T08:47:58;12.48;98.68
69776;DHT22;57049;51.450;-2.516;2022-11-13T08:50:24;12.56;98.58
69776;DHT22;57049;51.450;-2.516;2022-11-13T08:52:53;12.55;98.38
69776;DHT22;57049;51.450;-2.516;2022-11-13T08:55:20;12.55;98.51
69776;DHT22;57049;51.450;-2.516;2022-11-13T08:57:45;12.66;98.31
69776;DHT22;57049;51.450;-2.516;2022-11-13T09:00:11;12.66;98.22
69776;DHT22;57049;51.450;-2.516;2022-11-13T09:02:37;12.68;97.99
69776;DHT22;57049;51.450;-2.516;2022-11-13T09:05:03;12.75;97.92
69776;DHT22;57049;51.450;-2.516;2022-11-13T09:07:28;12.76;98.08
69776;DHT22;57049;51.450;-2.516;2022-11-13T09:09:54;12.82;97.78
69776;DHT22;57049;51.450;-2.516;2022-11-13T09:12:19;12.83;97.87
69776;DHT22;57049;51.450;-2.516;2022-11-13T09:14:45;12.86;97.92
69776;DHT22;57049;51.450;-2.516;2022-11-13T09:17:11;12.89;97.86
69776;DHT22;57049;51.450;-2.516;2022-11-13T09:19:36;12.92;97.61
69776;DHT22;57049;51.450;-2.516;2022-11-13T09:22:02;12.93;97.61
69776;DHT22;57049;51.450;-2.516;2022-11-13T09:24:27;12.88;97.60
69776;DHT22;57049;51.450;-2.516;2022-11-13T09:26:56;12.99;97.43
69776;DHT22;57049;51.450;-2.516;2022-11-13T09:29:21;13.00;97.54
69776;DHT22;57049;51.450;-2.516;2022-11-13T09:31:48;13.02;97.38
69776;DHT22;57049;51.450;-2.516;2022-11-13T09:34:14;13.10;97.39
69776;DHT22;57049;51.450;-2.516;2022-11-13T09:36:40;13.09;96.86
69776;DHT22;57049;51.450;-2.516;2022-11-13T09:39:06;13.06;96.96
69776;DHT22;57049;51.450;-2.516;2022-11-13T09:41:53;13.10;96.68
69776;DHT22;57049;51.450;-2.516;2022-11-13T09:44:31;13.09;96.68
69776;DHT22;57049;51.450;-2.516;2022-11-13T09:47:07;13.13;96.73
69776;DHT22;57049;51.450;-2.516;2022-11-13T09:49:42;13.13;96.51
69776;DHT22;57049;51.450;-2.516;2022-11-13T09:52:20;13.14;96.54
69776;DHT22;57049;51.450;-2.516;2022-11-13T09:54:48;13.24;96.32
69776;DHT22;57049;51.450;-2.516;2022-11-13T10:00:02;13.31;95.97
69776;DHT22;57049;51.450;-2.516;2022-11-13T10:14:15;13.55;94.87
69776;DHT22;57049;51.450;-2.516;2022-11-13T10:18:55;13.62;94.56
69776;DHT22;57049;51.450;-2.516;2022-11-13T10:21:52;13.70;94.49
69776;DHT22;57049;51.450;-2.516;2022-11-13T10:24:25;13.75;93.62
69776;DHT22;57049;51.450;-2.516;2022-11-13T10:26:55;13.81;93.51
69776;DHT22;57049;51.450;-2.516;2022-11-13T10:29:22;13.86;93.18
69776;DHT22;57049;51.450;-2.516;2022-11-13T10:31:50;13.91;93.26
69776;DHT22;57049;51.450;-2.516;2022-11-13T10:34:17;13.99;92.76
69776;DHT22;57049;51.450;-2.516;2022-11-13T10:37:12;14.06;92.54
69776;DHT22;57049;51.450;-2.516;2022-11-13T10:39:43;14.02;92.63
69776;DHT22;57049;51.450;-2.516;2022-11-13T10:42:35;14.16;91.94
69776;DHT22;57049;51.450;-2.516;2022-11-13T10:45:02;14.29;91.47
69776;DHT22;57049;51.450;-2.516;2022-11-13T10:47:31;14.29;91.18
69776;DHT22;57049;51.450;-2.516;2022-11-13T10:50:11;14.42;91.17
69776;DHT22;57049;51.450;-2.516;2022-11-13T10:52:44;14.39;91.05
69776;DHT22;57049;51.450;-2.516;2022-11-13T10:57:41;14.43;91.20
69776;DHT22;57049;51.450;-2.516;2022-11-13T11:00:23;14.47;90.92
69776;DHT22;57049;51.450;-2.516;2022-11-13T11:02:49;14.56;90.40
69776;DHT22;57049;51.450;-2.516;2022-11-13T11:05:20;14.60;90.26
69776;DHT22;57049;51.450;-2.516;2022-11-13T11:07:46;14.64;90.11
69776;DHT22;57049;51.450;-2.516;2022-11-13T11:10:29;14.72;90.50
69776;DHT22;57049;51.450;-2.516;2022-11-13T11:13:09;14.74;90.42
69776;DHT22;57049;51.450;-2.516;2022-11-13T11:15:51;14.74;90.34
69776;DHT22;57049;51.450;-2.516;2022-11-13T11:18:25;14.85;90.56
69776;DHT22;57049;51.450;-2.516;2022-11-13T11:20:53;14.90;90.17
69776;DHT22;57049;51.450;-2.516;2022-11-13T11:26:07;14.94;89.51
69776;DHT22;57049;51.450;-2.516;2022-11-13T11:28:57;14.87;89.87
69776;DHT22;57049;51.450;-2.516;2022-11-13T11:31:38;14.94;89.67
69776;DHT22;57049;51.450;-2.516;2022-11-13T11:34:14;14.97;89.72
69776;DHT22;57049;51.450;-2.516;2022-11-13T11:42:31;15.21;89.33
69776;DHT22;57049;51.450;-2.516;2022-11-13T11:47:29;15.21;89.31
69776;DHT22;57049;51.450;-2.516;2022-11-13T11:49:55;15.28;88.88
69776;DHT22;57049;51.450;-2.516;2022-11-13T11:53:10;15.35;88.50
69776;DHT22;57049;51.450;-2.516;2022-11-13T11:55:53;15.32;88.31
69776;DHT22;57049;51.450;-2.516;2022-11-13T12:09:44;15.39;88.11
69776;DHT22;57049;51.450;-2.516;2022-11-13T12:17:55;15.45;87.72
69776;DHT22;57049;51.450;-2.516;2022-11-13T12:23:39;15.54;87.32
69776;DHT22;57049;51.450;-2.516;2022-11-13T12:34:35;15.66;87.74
69776;DHT22;57049;51.450;-2.516;2022-11-13T12:37:09;15.70;87.16
69776;DHT22;57049;51.450;-2.516;2022-11-13T12:47:52;15.89;86.93
69776;DHT22;57049;51.450;-2.516;2022-11-13T12:50:29;15.92;87.08
69776;DHT22;57049;51.450;-2.516;2022-11-13T12:55:28;15.95;87.01
69776;DHT22;57049;51.450;-2.516;2022-11-13T12:57:56;15.95;87.11
69776;DHT22;57049;51.450;-2.516;2022-11-13T13:00:30;15.96;87.05
69776;DHT22;57049;51.450;-2.516;2022-11-13T13:06:08;16.14;87.35
69776;DHT22;57049;51.450;-2.516;2022-11-13T13:16:38;17.12;82.27
69776;DHT22;57049;51.450;-2.516;2022-11-13T13:19:29;17.46;82.01
69776;DHT22;57049;51.450;-2.516;2022-11-13T13:21:53;17.47;81.92
69776;DHT22;57049;51.450;-2.516;2022-11-13T13:24:34;17.39;81.42
69776;DHT22;57049;51.450;-2.516;2022-11-13T13:29:43;17.49;81.55
69776;DHT22;57049;51.450;-2.516;2022-11-13T13:38:04;17.39;81.98
69776;DHT22;57049;51.450;-2.516;2022-11-13T13:46:24;17.20;82.16
69776;DHT22;57049;51.450;-2.516;2022-11-13T13:48:54;17.32;82.38
69776;DHT22;57049;51.450;-2.516;2022-11-13T13:51:24;17.33;82.40
69776;DHT22;57049;51.450;-2.516;2022-11-13T13:53:51;17.33;81.79
69776;DHT22;57049;51.450;-2.516;2022-11-13T13:56:18;17.23;82.37
69776;DHT22;57049;51.450;-2.516;2022-11-13T13:58:45;17.16;82.01
69776;DHT22;57049;51.450;-2.516;2022-11-13T14:01:14;17.28;82.45
69776;DHT22;57049;51.450;-2.516;2022-11-13T14:03:39;17.18;82.69
69776;DHT22;57049;51.450;-2.516;2022-11-13T14:06:16;17.08;82.65
69776;DHT22;57049;51.450;-2.516;2022-11-13T14:08:42;16.89;83.10
69776;DHT22;57049;51.450;-2.516;2022-11-13T14:11:20;16.82;83.41
69776;DHT22;57049;51.450;-2.516;2022-11-13T14:13:46;16.85;83.27
69776;DHT22;57049;51.450;-2.516;2022-11-13T14:16:12;16.78;83.39
69776;DHT22;57049;51.450;-2.516;2022-11-13T14:18:38;16.88;83.66
69776;DHT22;57049;51.450;-2.516;2022-11-13T14:21:11;16.87;83.57
69776;DHT22;57049;51.450;-2.516;2022-11-13T14:23:43;16.81;83.62
69776;DHT22;57049;51.450;-2.516;2022-11-13T14:26:10;16.72;83.58
69776;DHT22;57049;51.450;-2.516;2022-11-13T14:28:58;16.60;84.00
69776;DHT22;57049;51.450;-2.516;2022-11-13T14:31:29;16.64;84.14
69776;DHT22;57049;51.450;-2.516;2022-11-13T14:33:58;16.57;84.55
69776;DHT22;57049;51.450;-2.516;2022-11-13T14:36:27;16.44;84.86
69776;DHT22;57049;51.450;-2.516;2022-11-13T14:38:55;16.34;85.37
69776;DHT22;57049;51.450;-2.516;2022-11-13T14:41:32;16.34;85.55
69776;DHT22;57049;51.450;-2.516;2022-11-13T14:44:00;16.34;85.44
69776;DHT22;57049;51.450;-2.516;2022-11-13T14:46:26;16.26;85.77
69776;DHT22;57049;51.450;-2.516;2022-11-13T14:48:54;16.20;85.88
69776;DHT22;57049;51.450;-2.516;2022-11-13T14:51:29;16.18;85.85
69776;DHT22;57049;51.450;-2.516;2022-11-13T14:54:05;16.12;86.40
69776;DHT22;57049;51.450;-2.516;2022-11-13T14:56:36;16.03;86.59
69776;DHT22;57049;51.450;-2.516;2022-11-13T14:59:23;16.00;86.82
69776;DHT22;57049;51.450;-2.516;2022-11-13T15:01:56;15.95;87.00
69776;DHT22;57049;51.450;-2.516;2022-11-13T15:04:22;15.89;87.30
69776;DHT22;57049;51.450;-2.516;2022-11-13T15:06:48;15.92;87.37
69776;DHT22;57049;51.450;-2.516;2022-11-13T15:09:16;15.76;87.74
69776;DHT22;57049;51.450;-2.516;2022-11-13T15:11:44;15.70;87.98
69776;DHT22;57049;51.450;-2.516;2022-11-13T15:14:11;15.65;87.95
69776;DHT22;57049;51.450;-2.516;2022-11-13T15:16:37;15.58;87.93
69776;DHT22;57049;51.450;-2.516;2022-11-13T15:21:47;15.36;88.52
69776;DHT22;57049;51.450;-2.516;2022-11-13T15:24:12;15.41;88.05
69776;DHT22;57049;51.450;-2.516;2022-11-13T15:26:38;15.28;88.47
69776;DHT22;57049;51.450;-2.516;2022-11-13T15:29:05;15.25;88.27
69776;DHT22;57049;51.450;-2.516;2022-11-13T15:31:34;15.14;88.63
69776;DHT22;57049;51.450;-2.516;2022-11-13T15:34:00;15.12;88.50
69776;DHT22;57049;51.450;-2.516;2022-11-13T15:36:26;15.10;88.55
69776;DHT22;57049;51.450;-2.516;2022-11-13T15:38:51;15.03;88.85
69776;DHT22;57049;51.450;-2.516;2022-11-13T15:41:20;14.94;88.96
69776;DHT22;57049;51.450;-2.516;2022-11-13T15:43:49;14.84;89.28
69776;DHT22;57049;51.450;-2.516;2022-11-13T15:46:18;14.76;89.45
69776;DHT22;57049;51.450;-2.516;2022-11-13T15:48:44;14.69;89.77
69776;DHT22;57049;51.450;-2.516;2022-11-13T15:51:31;14.59;90.00
69776;DHT22;57049;51.450;-2.516;2022-11-13T15:56:47;14.55;89.99
69776;DHT22;57049;51.450;-2.516;2022-11-13T15:59:13;14.50;90.07
69776;DHT22;57049;51.450;-2.516;2022-11-13T16:01:39;14.46;90.14
69776;DHT22;57049;51.450;-2.516;2022-11-13T16:04:05;14.50;89.92
69776;DHT22;57049;51.450;-2.516;2022-11-13T16:06:32;14.42;90.27
69776;DHT22;57049;51.450;-2.516;2022-11-13T16:09:02;14.30;90.49
69776;DHT22;57049;51.450;-2.516;2022-11-13T16:11:29;14.34;90.32
69776;DHT22;57049;51.450;-2.516;2022-11-13T16:13:56;14.22;90.70
69776;DHT22;57049;51.450;-2.516;2022-11-13T16:16:32;14.18;90.74
69776;DHT22;57049;51.450;-2.516;2022-11-13T16:18:58;14.13;90.81
69776;DHT22;57049;51.450;-2.516;2022-11-13T16:21:24;14.06;90.89
69776;DHT22;57049;51.450;-2.516;2022-11-13T16:23:49;14.12;90.68
69776;DHT22;57049;51.450;-2.516;2022-11-13T16:26:25;14.05;90.86
69776;DHT22;57049;51.450;-2.516;2022-11-13T16:28:52;13.99;91.06
69776;DHT22;57049;51.450;-2.516;2022-11-13T16:31:21;13.94;91.11
69776;DHT22;57049;51.450;-2.516;2022-11-13T16:33:47;13.95;91.25
69776;DHT22;57049;51.450;-2.516;2022-11-13T16:36:18;13.92;91.17
69776;DHT22;57049;51.450;-2.516;2022-11-13T16:38:44;13.85;91.27
69776;DHT22;57049;51.450;-2.516;2022-11-13T16:41:10;13.83;91.36
69776;DHT22;57049;51.450;-2.516;2022-11-13T16:43:36;13.91;91.23
69776;DHT22;57049;51.450;-2.516;2022-11-13T16:48:40;13.78;91.47
69776;DHT22;57049;51.450;-2.516;2022-11-13T16:51:06;13.67;91.81
69776;DHT22;57049;51.450;-2.516;2022-11-13T16:53:31;13.62;91.83
69776;DHT22;57049;51.450;-2.516;2022-11-13T16:55:57;13.65;91.69
69776;DHT22;57049;51.450;-2.516;2022-11-13T16:58:22;13.60;91.85
69776;DHT22;57049;51.450;-2.516;2022-11-13T17:00:48;13.62;91.74
69776;DHT22;57049;51.450;-2.516;2022-11-13T17:03:13;13.61;91.68
69776;DHT22;57049;51.450;-2.516;2022-11-13T17:05:39;13.46;91.96